Time;durP1;ratioP1;P1;durP2;ratioP2;P2;SDS_P1;SDS_P2;PMS_P1;PMS_P2;Temp;Humidity;BMP_temperature;BMP_pressure;BME280_temperature;BME280_humidity;BME280_pressure;Samples;Min_cycle;Max_cycle;Signal;HPM_P1;HPM_P2
2021/10/27 00:01:13;;;;;;;18.05;16.45;;;6.90;99.90;;;;;;4953810;28;20038;-78
2021/10/27 00:03:39;;;;;;;16.13;14.55;;;6.80;99.90;;;;;;4953609;28;20035;-78
2021/10/27 00:06:06;;;;;;;17.33;15.65;;;6.80;99.90;;;;;;4955166;28;20126;-77
2021/10/27 00:08:32;;;;;;;16.17;14.55;;;6.90;99.90;;;;;;4953538;28;20031;-78
2021/10/27 00:10:59;;;;;;;16.70;15.18;;;6.80;99.90;;;;;;4956904;28;20051;-77
2021/10/27 00:13:25;;;;;;;15.95;14.45;;;6.80;99.90;;;;;;4957250;28;20031;-78
2021/10/27 00:15:51;;;;;;;16.13;14.65;;;6.80;99.90;;;;;;4956877;28;20518;-77
2021/10/27 00:18:18;;;;;;;16.95;15.18;;;6.80;99.90;;;;;;4974634;28;20058;-77
2021/10/27 00:20:44;;;;;;;17.75;15.82;;;6.80;99.90;;;;;;4955605;28;20043;-78
2021/10/27 00:23:10;;;;;;;18.08;16.30;;;6.80;99.90;;;;;;4956575;28;20039;-78
2021/10/27 00:25:37;;;;;;;18.77;16.92;;;6.70;99.90;;;;;;4956311;28;20444;-77
2021/10/27 00:28:03;;;;;;;16.85;15.43;;;6.70;99.90;;;;;;4956533;28;20046;-77
2021/10/27 00:30:30;;;;;;;17.52;15.93;;;6.80;99.90;;;;;;4955509;28;20038;-79
2021/10/27 00:32:57;;;;;;;17.17;15.70;;;6.80;99.90;;;;;;4956780;28;20039;-77
2021/10/27 00:35:24;;;;;;;19.00;17.25;;;6.80;99.90;;;;;;4956734;28;20464;-78
2021/10/27 00:37:50;;;;;;;17.08;15.68;;;6.80;99.90;;;;;;4956232;28;20039;-77
2021/10/27 00:40:17;;;;;;;18.73;16.85;;;6.90;99.90;;;;;;4956412;28;20039;-78
2021/10/27 00:42:43;;;;;;;20.65;18.65;;;7.00;99.90;;;;;;4956230;29;20036;-78
2021/10/27 00:45:09;;;;;;;19.60;18.02;;;7.00;99.90;;;;;;4956406;28;20031;-78
2021/10/27 00:47:35;;;;;;;20.10;18.30;;;7.10;99.90;;;;;;4956218;28;20058;-78
2021/10/27 00:50:03;;;;;;;22.92;20.48;;;7.20;99.90;;;;;;4956791;28;20488;-78
2021/10/27 00:52:30;;;;;;;21.02;19.10;;;7.30;99.90;;;;;;4956113;28;20034;-81
2021/10/27 00:54:57;;;;;;;21.05;19.38;;;7.30;99.90;;;;;;4974590;28;20057;-77
2021/10/27 00:57:24;;;;;;;22.33;20.23;;;7.40;99.90;;;;;;4967518;28;20393;-77
2021/10/27 00:59:51;;;;;;;23.02;20.73;;;7.40;99.90;;;;;;4956066;28;20027;-77
2021/10/27 01:02:19;;;;;;;23.25;21.15;;;7.50;99.90;;;;;;4955752;28;20031;-78
2021/10/27 01:04:47;;;;;;;22.98;20.83;;;7.50;99.90;;;;;;4955748;29;20046;-77
2021/10/27 01:07:13;;;;;;;22.73;20.55;;;7.50;99.90;;;;;;4956169;28;20464;-77
2021/10/27 01:09:40;;;;;;;22.10;20.13;;;7.60;99.90;;;;;;4955395;28;20397;-78
2021/10/27 01:12:07;;;;;;;21.35;19.50;;;7.60;99.90;;;;;;4955820;28;20059;-77
2021/10/27 01:14:34;;;;;;;22.30;19.83;;;7.70;99.90;;;;;;4956233;28;20034;-77
2021/10/27 01:17:02;;;;;;;22.25;20.17;;;7.70;99.90;;;;;;4955602;28;20050;-78
2021/10/27 01:19:33;;;;;;;21.05;19.42;;;7.80;99.90;;;;;;4957713;28;20472;-82
2021/10/27 01:21:59;;;;;;;;;;;7.80;99.90;;;;;;4970379;28;20031;-80
2021/10/27 01:24:26;;;;;;;21.58;19.63;;;7.80;99.90;;;;;;4955465;28;19993;-78
2021/10/27 01:26:52;;;;;;;21.35;19.50;;;7.90;99.90;;;;;;4967785;28;20035;-77
2021/10/27 01:29:18;;;;;;;22.98;19.67;;;7.90;99.90;;;;;;4955622;28;20126;-77
2021/10/27 01:31:44;;;;;;;22.52;20.65;;;7.90;99.90;;;;;;4955705;28;20036;-77
2021/10/27 01:34:10;;;;;;;22.27;20.13;;;7.90;99.90;;;;;;4954833;28;20058;-77
2021/10/27 01:36:36;;;;;;;21.83;19.92;;;8.00;99.90;;;;;;4955082;28;20047;-78
2021/10/27 01:39:03;;;;;;;20.95;18.92;;;8.00;99.90;;;;;;4964401;28;20035;-78
2021/10/27 01:41:29;;;;;;;22.25;20.08;;;8.00;99.90;;;;;;4955303;28;20040;-78
2021/10/27 01:43:57;;;;;;;21.50;19.02;;;8.00;99.90;;;;;;4955331;28;20035;-77
2021/10/27 01:46:32;;;;;;;20.08;18.05;;;8.10;99.90;;;;;;4958026;28;20042;-77
2021/10/27 01:48:59;;;;;;;20.98;18.88;;;8.10;99.90;;;;;;4970250;28;20050;-78
2021/10/27 01:51:28;;;;;;;19.55;17.63;;;8.10;99.90;;;;;;4955751;28;20035;-78
2021/10/27 01:53:55;;;;;;;20.42;18.50;;;8.10;99.90;;;;;;4955976;28;20039;-78
2021/10/27 01:56:23;;;;;;;20.00;17.25;;;8.20;99.90;;;;;;4960429;28;20043;-77
2021/10/27 01:58:50;;;;;;;19.02;17.40;;;8.20;99.90;;;;;;4955320;28;20316;-78
2021/10/27 02:01:17;;;;;;;18.85;17.15;;;8.20;99.90;;;;;;4968749;28;20040;-77
2021/10/27 02:03:44;;;;;;;19.25;17.48;;;8.20;99.90;;;;;;4954548;28;20062;-78
2021/10/27 02:06:10;;;;;;;21.30;19.02;;;8.20;99.90;;;;;;4955235;28;20046;-77
2021/10/27 02:08:37;;;;;;;72.93;65.90;;;8.30;99.90;;;;;;4954614;28;20039;-78
2021/10/27 02:11:04;;;;;;;23.00;20.63;;;8.30;99.90;;;;;;4954721;28;20051;-78
2021/10/27 02:13:30;;;;;;;47.72;42.72;;;8.30;99.90;;;;;;4955148;28;20039;-77
2021/10/27 02:15:57;;;;;;;100.63;90.65;;;8.40;99.90;;;;;;4959763;28;20042;-77
2021/10/27 02:18:24;;;;;;;23.98;20.80;;;8.40;99.90;;;;;;4965924;28;20038;-77
2021/10/27 02:20:50;;;;;;;27.98;25.17;;;8.40;99.90;;;;;;4959246;28;20280;-77
2021/10/27 02:23:17;;;;;;;34.63;31.48;;;8.40;99.90;;;;;;4954489;29;20035;-77
2021/10/27 02:25:43;;;;;;;36.33;32.95;;;8.40;99.90;;;;;;4954042;28;20395;-77
2021/10/27 02:28:10;;;;;;;86.57;77.78;;;8.40;99.90;;;;;;4954304;28;20039;-77
2021/10/27 02:30:36;;;;;;;21.73;19.58;;;8.40;99.90;;;;;;4954409;28;20035;-78
2021/10/27 02:33:04;;;;;;;100.00;90.13;;;8.40;99.90;;;;;;4953730;28;20039;-77
2021/10/27 02:35:31;;;;;;;72.63;57.22;;;8.30;99.90;;;;;;4955285;28;20361;-78
2021/10/27 02:37:58;;;;;;;53.13;44.03;;;8.30;99.90;;;;;;4971128;28;20444;-77
2021/10/27 02:40:24;;;;;;;22.38;20.10;;;8.30;99.90;;;;;;4967129;28;20038;-77
2021/10/27 02:42:51;;;;;;;31.77;27.80;;;8.30;99.90;;;;;;4964421;28;20041;-77
2021/10/27 02:45:18;;;;;;;27.20;24.45;;;8.30;99.90;;;;;;4956214;28;20038;-77
2021/10/27 02:47:44;;;;;;;37.88;33.03;;;8.20;99.90;;;;;;4964824;28;20045;-77
2021/10/27 02:50:13;;;;;;;62.55;56.28;;;8.20;99.90;;;;;;4959563;28;20039;-78
2021/10/27 02:52:40;;;;;;;38.80;30.85;;;8.10;99.90;;;;;;4954054;28;20035;-77
2021/10/27 02:55:07;;;;;;;16.83;15.05;;;8.10;99.90;;;;;;4953999;28;20027;-77
2021/10/27 02:57:34;;;;;;;59.05;52.83;;;8.10;99.90;;;;;;4968364;28;20051;-77
2021/10/27 03:00:00;;;;;;;55.00;48.88;;;8.00;99.90;;;;;;4952868;28;20039;-77
2021/10/27 03:02:26;;;;;;;276.52;248.43;;;8.10;99.90;;;;;;4956405;28;20031;-77
2021/10/27 03:04:53;;;;;;;53.60;31.90;;;8.10;99.90;;;;;;4973048;28;20035;-78
2021/10/27 03:07:19;;;;;;;42.65;38.22;;;8.10;99.90;;;;;;4954172;28;20036;-78
2021/10/27 03:09:45;;;;;;;130.25;117.07;;;8.10;99.90;;;;;;4953509;28;20031;-78
2021/10/27 03:12:11;;;;;;;61.40;49.10;;;8.10;99.90;;;;;;4953483;28;20408;-77
2021/10/27 03:14:38;;;;;;;196.75;176.27;;;8.20;99.90;;;;;;4953426;28;20465;-78
2021/10/27 03:17:04;;;;;;;42.50;36.50;;;8.20;99.90;;;;;;4953526;28;20050;-78
2021/10/27 03:19:30;;;;;;;25.80;19.45;;;8.20;99.90;;;;;;4968618;28;20023;-78
2021/10/27 03:21:57;;;;;;;121.03;108.07;;;8.30;99.90;;;;;;4953485;29;20460;-81
2021/10/27 03:24:23;;;;;;;48.53;40.28;;;8.30;99.90;;;;;;4953739;28;20031;-78
2021/10/27 03:26:49;;;;;;;33.88;25.75;;;8.40;99.90;;;;;;4953446;28;20031;-77
2021/10/27 03:29:15;;;;;;;109.22;96.03;;;8.40;99.90;;;;;;4953905;28;20028;-77
2021/10/27 03:31:41;;;;;;;142.25;120.93;;;8.40;99.90;;;;;;4953800;28;20082;-77
2021/10/27 03:34:08;;;;;;;27.60;21.15;;;8.40;99.90;;;;;;4963681;28;20032;-76
2021/10/27 03:36:34;;;;;;;28.52;24.83;;;8.40;99.90;;;;;;4972532;28;20035;-78
2021/10/27 03:39:00;;;;;;;27.23;24.20;;;8.50;99.90;;;;;;4965823;28;20027;-77
2021/10/27 03:41:26;;;;;;;40.83;34.38;;;8.50;99.90;;;;;;4953919;28;20492;-77
2021/10/27 03:43:52;;;;;;;132.32;118.15;;;8.50;99.90;;;;;;4953726;28;20467;-76
2021/10/27 03:46:19;;;;;;;82.28;66.25;;;8.50;99.90;;;;;;4957484;28;20039;-77
2021/10/27 03:48:45;;;;;;;59.85;49.25;;;8.50;99.90;;;;;;4967361;28;20035;-77
2021/10/27 03:51:13;;;;;;;68.88;53.97;;;8.50;99.90;;;;;;4975875;28;20034;-77
2021/10/27 03:53:40;;;;;;;37.28;31.85;;;8.50;99.90;;;;;;4955635;28;20038;-77
2021/10/27 03:56:06;;;;;;;40.10;30.27;;;8.50;99.90;;;;;;4956951;28;20042;-79
2021/10/27 03:58:33;;;;;;;14.15;12.38;;;8.50;99.90;;;;;;4957481;28;20044;-78
2021/10/27 04:01:00;;;;;;;44.85;37.13;;;8.50;99.90;;;;;;4955965;28;20035;-77
2021/10/27 04:03:27;;;;;;;21.60;18.80;;;8.50;99.90;;;;;;4957336;28;20036;-77
2021/10/27 04:05:53;;;;;;;25.98;19.95;;;8.60;99.90;;;;;;4956535;28;20031;-78
2021/10/27 04:08:20;;;;;;;21.30;17.10;;;8.60;99.90;;;;;;4957081;28;20486;-79
2021/10/27 04:10:46;;;;;;;43.30;36.28;;;8.60;99.90;;;;;;4956356;29;20035;-78
2021/10/27 04:13:13;;;;;;;26.13;23.52;;;8.60;99.90;;;;;;4956922;28;20039;-77
2021/10/27 04:15:40;;;;;;;38.88;34.88;;;8.60;99.90;;;;;;4958005;28;20046;-77
2021/10/27 04:18:06;;;;;;;24.77;20.55;;;8.60;99.90;;;;;;4956814;28;20039;-77
2021/10/27 04:20:33;;;;;;;39.42;35.58;;;8.60;99.90;;;;;;4956596;28;20023;-77
2021/10/27 04:22:59;;;;;;;44.92;40.10;;;8.60;99.90;;;;;;4956796;28;20027;-77
2021/10/27 04:25:26;;;;;;;79.97;66.97;;;8.60;99.90;;;;;;4958036;28;20488;-77
2021/10/27 04:27:52;;;;;;;56.20;42.47;;;8.60;99.90;;;;;;4956564;28;20038;-77
2021/10/27 04:30:19;;;;;;;20.52;14.32;;;8.60;99.90;;;;;;4959566;28;20054;-76
2021/10/27 04:32:45;;;;;;;155.25;126.30;;;8.50;99.90;;;;;;4958674;28;20036;-77
2021/10/27 04:35:11;;;;;;;85.70;61.65;;;8.50;99.90;;;;;;4957467;28;20042;-77
2021/10/27 04:37:43;;;;;;;33.83;24.48;;;8.40;99.90;;;;;;4955956;28;20039;-77
2021/10/27 04:40:13;;;;;;;29.05;20.17;;;8.30;99.90;;;;;;4962481;28;20035;-76
2021/10/27 04:42:40;;;;;;;73.18;58.25;;;8.40;99.90;;;;;;4957712;28;20050;-76
2021/10/27 04:45:07;;;;;;;710.38;585.88;;;8.40;99.90;;;;;;4965232;28;20027;-77
2021/10/27 04:47:33;;;;;;;148.13;83.55;;;8.40;99.90;;;;;;4974361;28;20086;-76
2021/10/27 04:50:00;;;;;;;316.33;233.90;;;8.40;99.90;;;;;;4962587;28;20031;-77
2021/10/27 04:52:26;;;;;;;552.38;413.17;;;8.40;99.90;;;;;;4956333;28;20032;-77
2021/10/27 04:54:52;;;;;;;49.15;26.00;;;8.50;99.90;;;;;;4955999;28;20023;-81
2021/10/27 04:57:19;;;;;;;417.75;316.27;;;8.50;99.90;;;;;;4955029;28;20043;-76
2021/10/27 04:59:46;;;;;;;137.00;82.38;;;8.50;99.90;;;;;;4955710;28;20042;-76
2021/10/27 05:02:15;;;;;;;311.30;235.20;;;8.50;99.90;;;;;;4968710;28;20023;-81
2021/10/27 05:04:41;;;;;;;103.30;78.32;;;8.60;99.90;;;;;;4955995;28;20035;-77
2021/10/27 05:07:10;;;;;;;195.77;160.82;;;8.60;99.90;;;;;;4956288;28;20039;-76
2021/10/27 05:09:37;;;;;;;71.65;52.45;;;8.60;99.90;;;;;;4963153;28;20044;-77
2021/10/27 05:12:04;;;;;;;29.23;25.83;;;8.70;99.90;;;;;;4955700;28;20051;-76
2021/10/27 05:14:38;;;;;;;13.82;12.30;;;8.70;99.90;;;;;;4958168;28;20379;-76
2021/10/27 05:17:09;;;;;;;15.30;13.85;;;8.70;99.90;;;;;;4965999;28;20038;-76
2021/10/27 05:19:37;;;;;;;18.65;17.02;;;8.70;99.90;;;;;;4956135;28;20054;-76
2021/10/27 05:22:05;;;;;;;15.77;14.35;;;8.70;99.90;;;;;;4954338;28;20047;-77
2021/10/27 05:24:31;;;;;;;14.07;12.60;;;8.70;99.90;;;;;;4965450;28;20042;-76
2021/10/27 05:26:57;;;;;;;30.65;22.00;;;8.70;99.90;;;;;;4960914;28;20034;-77
2021/10/27 05:29:24;;;;;;;15.35;13.23;;;8.70;99.90;;;;;;4955530;28;20058;-76
2021/10/27 05:31:50;;;;;;;15.18;11.15;;;8.70;99.90;;;;;;4954916;28;20031;-77
2021/10/27 05:34:17;;;;;;;9.65;7.65;;;8.80;99.90;;;;;;4955468;28;20042;-77
2021/10/27 05:36:44;;;;;;;12.00;8.32;;;8.80;99.90;;;;;;4955355;28;20034;-79
2021/10/27 05:39:13;;;;;;;13.20;8.68;;;8.80;99.90;;;;;;4954820;28;20046;-76
2021/10/27 05:41:48;;;;;;;9.43;8.55;;;8.80;99.90;;;;;;4955157;28;20060;-77
2021/10/27 05:44:19;;;;;;;17.25;12.57;;;8.80;99.90;;;;;;4955730;28;20043;-76
2021/10/27 05:46:48;;;;;;;11.75;10.43;;;8.80;99.90;;;;;;4955046;28;20036;-77
2021/10/27 05:49:25;;;;;;;9.38;8.38;;;8.80;99.90;;;;;;4971242;28;20051;-76
2021/10/27 05:55:00;;;;;;;10.63;8.82;;;8.80;99.90;;;;;;4970200;28;20046;-76
2021/10/27 05:55:06;;;;;;;8.35;7.10;;;8.80;99.90;;;;;;4955421;29;20035;-76
2021/10/27 06:00:01;;;;;;;9.32;7.32;;;8.80;99.90;;;;;;4954580;28;20040;-77
2021/10/27 06:02:27;;;;;;;13.02;8.35;;;8.80;99.90;;;;;;4952328;29;20043;-76
2021/10/27 06:04:53;;;;;;;10.95;8.82;;;8.70;99.90;;;;;;4954871;28;20039;-76
2021/10/27 06:07:20;;;;;;;9.63;8.02;;;8.70;99.90;;;;;;4958590;28;20133;-76
2021/10/27 06:09:48;;;;;;;12.93;10.02;;;8.70;99.90;;;;;;4967325;28;20035;-76
2021/10/27 06:12:16;;;;;;;8.98;8.20;;;8.60;99.90;;;;;;4954262;28;20063;-76
2021/10/27 06:14:44;;;;;;;9.25;8.55;;;8.60;99.90;;;;;;4962862;28;20046;-77
2021/10/27 06:17:10;;;;;;;9.77;7.60;;;8.60;99.90;;;;;;4955054;28;20035;-78
2021/10/27 06:19:36;;;;;;;11.52;9.50;;;8.60;99.90;;;;;;4954566;28;20027;-77
2021/10/27 06:22:03;;;;;;;10.95;9.73;;;8.60;99.90;;;;;;4954518;28;20038;-77
2021/10/27 06:24:30;;;;;;;15.80;10.52;;;8.60;99.90;;;;;;4953028;28;20035;-77
2021/10/27 06:26:58;;;;;;;10.38;9.30;;;8.60;99.90;;;;;;4953646;28;20042;-77
2021/10/27 06:29:30;;;;;;;14.90;9.85;;;8.60;99.90;;;;;;4954197;28;20031;-78
2021/10/27 06:32:48;;;;;;;11.60;8.77;;;8.60;99.90;;;;;;4968294;28;20409;-78
2021/10/27 06:34:52;;;;;;;9.75;8.82;;;8.70;99.90;;;;;;4953405;28;20542;-78
2021/10/27 06:38:25;;;;;;;9.73;8.73;;;8.70;99.90;;;;;;4952995;28;20047;-78
2021/10/27 06:48:24;;;;;;;10.95;9.77;;;8.90;99.90;;;;;;4954268;28;20043;-78
2021/10/27 06:50:51;;;;;;;9.77;8.60;;;9.00;99.90;;;;;;4953655;28;20054;-79
2021/10/27 06:53:17;;;;;;;11.43;10.48;;;9.00;99.90;;;;;;4953855;28;20047;-79
2021/10/27 06:55:43;;;;;;;11.10;9.88;;;9.10;99.90;;;;;;4953539;28;20389;-79
2021/10/27 06:58:11;;;;;;;10.55;8.05;;;9.10;99.90;;;;;;4953294;28;20047;-79
2021/10/27 07:00:45;;;;;;;12.02;9.88;;;9.10;99.90;;;;;;4954366;28;20038;-78
2021/10/27 07:16:46;;;;;;;13.63;12.23;;;9.40;99.90;;;;;;4953254;28;20040;-79
2021/10/27 07:19:12;;;;;;;12.50;10.00;;;9.40;99.90;;;;;;4954162;28;20043;-78
2021/10/27 07:21:39;;;;;;;15.63;11.95;;;9.50;99.90;;;;;;4957452;28;20031;-79
2021/10/27 07:24:09;;;;;;;27.58;23.25;;;9.50;99.90;;;;;;4958139;28;20038;-79
2021/10/27 07:26:37;;;;;;;22.02;18.80;;;9.60;99.90;;;;;;4957894;28;20038;-78
2021/10/27 07:29:04;;;;;;;67.22;60.33;;;9.70;99.90;;;;;;4957402;28;20043;-78
2021/10/27 07:31:31;;;;;;;22.25;17.00;;;9.70;99.90;;;;;;4971620;28;20488;-79
2021/10/27 07:34:05;;;;;;;15.13;13.60;;;9.80;99.90;;;;;;4957554;28;20039;-78
2021/10/27 07:41:52;;;;;;;10.63;8.32;;;10.20;99.90;;;;;;4958944;28;20043;-79
2021/10/27 07:44:20;;;;;;;8.40;7.70;;;10.40;99.90;;;;;;4957255;28;20027;-79
2021/10/27 07:46:47;;;;;;;7.93;7.22;;;10.50;99.90;;;;;;4956881;28;20031;-79
2021/10/27 07:49:14;;;;;;;8.40;7.57;;;10.60;99.90;;;;;;4957944;28;20050;-79
2021/10/27 07:51:41;;;;;;;7.88;6.90;;;10.80;99.90;;;;;;4957516;28;20034;-79
2021/10/27 07:54:07;;;;;;;8.52;7.35;;;11.00;99.90;;;;;;4956994;28;20028;-79
2021/10/27 07:56:33;;;;;;;10.43;7.32;;;11.40;99.90;;;;;;4957703;28;20089;-79
2021/10/27 07:59:01;;;;;;;9.73;8.32;;;11.70;99.90;;;;;;4957531;28;20043;-79
2021/10/27 08:01:28;;;;;;;9.05;6.82;;;11.70;99.70;;;;;;4956633;28;20034;-77
2021/10/27 08:04:00;;;;;;;9.05;8.10;;;11.80;99.10;;;;;;4962381;28;20035;-77
2021/10/27 08:06:26;;;;;;;8.70;7.68;;;12.10;98.00;;;;;;4957411;28;20031;-77
2021/10/27 08:08:54;;;;;;;10.63;7.80;;;12.10;96.70;;;;;;4956619;28;20429;-78
2021/10/27 08:11:20;;;;;;;7.47;6.75;;;12.20;96.20;;;;;;4956605;28;20066;-79
2021/10/27 08:13:47;;;;;;;6.88;6.28;;;12.20;96.60;;;;;;4956537;28;20472;-77
2021/10/27 08:16:15;;;;;;;7.35;6.63;;;12.30;95.10;;;;;;4956357;28;20384;-77
2021/10/27 08:18:41;;;;;;;8.13;7.20;;;12.20;95.20;;;;;;4966966;28;20050;-76
2021/10/27 08:21:07;;;;;;;7.43;6.68;;;12.00;94.80;;;;;;4957137;28;20377;-78
2021/10/27 08:23:39;;;;;;;6.65;6.03;;;11.90;95.40;;;;;;4956666;28;20043;-77
2021/10/27 08:26:09;;;;;;;7.47;6.60;;;12.10;95.30;;;;;;4956607;28;20066;-78
2021/10/27 08:28:41;;;;;;;9.27;6.20;;;12.20;94.80;;;;;;4956664;28;20036;-78
2021/10/27 08:34:34;;;;;;;8.13;5.20;;;12.50;93.30;;;;;;4956120;28;20040;-78
2021/10/27 08:36:33;;;;;;;6.85;6.20;;;12.40;94.30;;;;;;4958483;28;20061;-77
2021/10/27 08:39:03;;;;;;;5.95;5.32;;;12.50;93.60;;;;;;4955768;28;20370;-78
2021/10/27 08:41:32;;;;;;;6.40;5.80;;;12.60;93.00;;;;;;4956620;28;20043;-78
2021/10/27 08:43:59;;;;;;;6.43;5.60;;;12.60;93.10;;;;;;4955984;28;20469;-77
2021/10/27 08:46:27;;;;;;;9.25;6.60;;;12.70;92.50;;;;;;4956285;28;20031;-77
2021/10/27 08:48:55;;;;;;;6.95;5.90;;;12.60;92.30;;;;;;4972332;28;20051;-78
2021/10/27 08:51:26;;;;;;;8.60;5.65;;;12.50;92.80;;;;;;4959322;28;20042;-78
2021/10/27 08:53:54;;;;;;;11.00;6.47;;;12.50;92.70;;;;;;4956346;28;20035;-78
2021/10/27 08:56:24;;;;;;;7.38;6.68;;;12.50;92.80;;;;;;4954564;28;20062;-77
2021/10/27 08:58:58;;;;;;;;;;;12.20;92.70;;;;;;4955916;28;20035;-77
2021/10/27 09:14:57;;;;;;;6.70;6.00;;;12.90;92.40;;;;;;4963870;28;20095;-78
2021/10/27 09:33:31;;;;;;;11.13;6.53;;;12.80;92.10;;;;;;4955687;28;20047;-78
2021/10/27 09:34:37;;;;;;;7.05;6.10;;;11.90;94.60;;;;;;4957816;28;20108;-77
2021/10/27 09:46:35;;;;;;;8.25;6.47;;;12.20;94.00;;;;;;4955268;28;20400;-77
2021/10/27 10:06:15;;;;;;;47.85;42.65;;;13.20;92.50;;;;;;4954885;28;20039;-78
2021/10/27 10:08:46;;;;;;;20.38;15.23;;;13.40;91.20;;;;;;4954924;28;20381;-78
2021/10/27 10:11:14;;;;;;;22.30;17.38;;;13.40;91.50;;;;;;4954850;29;20059;-78
2021/10/27 10:13:40;;;;;;;22.45;19.35;;;13.40;91.30;;;;;;4969259;28;20031;-78
2021/10/27 10:16:07;;;;;;;26.08;23.13;;;13.50;91.40;;;;;;4961447;28;20485;-78
2021/10/27 10:18:34;;;;;;;25.05;15.65;;;13.60;90.90;;;;;;4955008;28;20039;-78
2021/10/27 10:21:01;;;;;;;30.27;20.15;;;13.60;90.60;;;;;;4954738;28;20038;-78
2021/10/27 10:23:27;;;;;;;19.08;10.30;;;13.70;90.50;;;;;;4954312;28;20031;-77
2021/10/27 10:26:01;;;;;;;24.63;21.98;;;13.50;90.10;;;;;;4954724;28;20142;-78
2021/10/27 10:28:43;;;;;;;14.25;9.60;;;13.50;90.80;;;;;;4954481;28;20477;-78
2021/10/27 10:31:10;;;;;;;29.65;26.52;;;13.80;90.30;;;;;;4954096;28;20463;-78
2021/10/27 10:33:43;;;;;;;32.40;26.45;;;13.90;89.00;;;;;;4954950;28;20031;-77
2021/10/27 10:36:23;;;;;;;15.63;13.95;;;13.80;88.60;;;;;;4954896;28;20385;-77
2021/10/27 11:41:01;;;;;;;3.15;2.67;;;15.50;78.20;;;;;;4961831;28;19911;-78
2021/10/27 11:43:43;;;;;;;;;;;15.10;78.60;;;;;;4954141;28;20035;-78
2021/10/27 11:46:11;;;;;;;14.10;4.05;;;15.00;79.50;;;;;;4953785;28;19917;-78
2021/10/27 11:51:13;;;;;;;4.85;3.10;;;14.90;79.40;;;;;;4953104;28;20032;-78
2021/10/27 11:53:42;;;;;;;6.72;4.05;;;15.00;80.00;;;;;;4953194;28;20042;-78
2021/10/27 11:56:18;;;;;;;4.28;3.03;;;15.20;79.70;;;;;;4953594;28;20043;-78
2021/10/27 11:58:47;;;;;;;12.77;2.70;;;15.10;78.20;;;;;;4953682;28;20035;-78
2021/10/27 12:01:42;;;;;;;3.50;2.80;;;15.20;78.80;;;;;;4953620;28;20058;-78
2021/10/27 12:04:15;;;;;;;3.67;2.15;;;15.40;77.10;;;;;;4952693;28;20064;-78
2021/10/27 12:06:59;;;;;;;4.30;2.42;;;15.50;76.40;;;;;;4956235;28;20035;-78
2021/10/27 12:09:44;;;;;;;3.28;2.13;;;15.60;76.50;;;;;;4971421;28;20066;-78
2021/10/27 12:16:25;;;;;;;2.28;2.08;;;15.50;75.50;;;;;;4957182;28;20050;-78
2021/10/27 12:18:10;;;;;;;4.82;1.92;;;15.50;76.40;;;;;;4941813;29;20039;-77
2021/10/27 12:20:40;;;;;;;4.85;2.22;;;15.30;75.20;;;;;;4956378;28;20046;-77
2021/10/27 12:23:21;;;;;;;4.85;2.75;;;15.20;76.60;;;;;;4957154;28;20389;-77
2021/10/27 12:25:47;;;;;;;;;;;15.20;76.80;;;;;;4957565;28;20031;-77
2021/10/27 12:28:30;;;;;;;3.47;2.03;;;15.30;76.40;;;;;;4956684;28;19917;-77
2021/10/27 12:30:57;;;;;;;2.00;1.75;;;15.20;76.20;;;;;;4956425;28;20032;-78
2021/10/27 12:33:41;;;;;;;2.97;1.95;;;15.40;76.80;;;;;;4955035;28;20039;-78
2021/10/27 12:36:27;;;;;;;3.85;1.80;;;15.60;77.00;;;;;;4956195;28;20231;-77
2021/10/27 12:39:18;;;;;;;3.80;2.53;;;15.60;75.00;;;;;;4956092;28;20468;-77
2021/10/27 12:41:57;;;;;;;2.42;1.92;;;15.50;75.10;;;;;;4955385;28;20046;-78
2021/10/27 12:44:25;;;;;;;3.05;1.40;;;15.60;75.50;;;;;;4956708;28;20465;-77
2021/10/27 12:47:27;;;;;;;2.53;1.80;;;15.60;74.50;;;;;;4955567;28;20027;-77
2021/10/27 12:50:13;;;;;;;3.97;1.80;;;15.50;75.00;;;;;;4956098;28;20046;-78
2021/10/27 12:52:52;;;;;;;1.48;1.20;;;15.50;75.40;;;;;;4956683;28;20042;-78
2021/10/27 12:55:24;;;;;;;3.97;1.83;;;15.70;75.70;;;;;;4956193;28;20390;-78
2021/10/27 12:57:54;;;;;;;2.88;1.92;;;15.90;74.60;;;;;;4956011;28;20046;-78
2021/10/27 13:00:32;;;;;;;2.63;1.83;;;15.80;74.00;;;;;;4955861;28;20507;-77
2021/10/27 13:05:53;;;;;;;2.70;1.40;;;16.00;73.90;;;;;;4956284;28;20491;-77
2021/10/27 13:09:12;;;;;;;2.67;1.85;;;15.90;73.70;;;;;;4956097;28;20477;-77
2021/10/27 13:21:07;;;;;;;6.30;2.45;;;16.20;73.70;;;;;;4960156;28;20023;-77
2021/10/27 13:24:01;;;;;;;6.95;2.33;;;16.00;73.30;;;;;;4956310;28;20035;-77
2021/10/27 13:31:55;;;;;;;3.35;1.52;;;16.00;74.00;;;;;;4955175;28;20393;-78
2021/10/27 13:34:23;;;;;;;5.03;1.90;;;16.10;72.80;;;;;;4954418;28;20046;-77
2021/10/27 13:36:51;;;;;;;4.82;1.55;;;16.00;72.50;;;;;;4955514;28;20038;-78
2021/10/27 13:39:21;;;;;;;2.85;1.48;;;16.00;73.30;;;;;;4955062;28;20043;-79
2021/10/27 13:41:55;;;;;;;13.20;1.90;;;16.00;73.40;;;;;;4955174;28;20466;-80
2021/10/27 13:44:24;;;;;;;3.08;1.35;;;16.10;74.20;;;;;;4970266;28;20042;-79
2021/10/27 13:47:00;;;;;;;2.15;1.52;;;16.20;72.60;;;;;;4953660;28;20428;-78
2021/10/27 14:08:31;;;;;;;1.65;1.20;;;15.90;72.90;;;;;;4954866;28;20039;-78
2021/10/27 15:19:59;;;;;;;1.70;0.90;;;15.50;74.40;;;;;;4953687;28;20425;-76
2021/10/27 15:25:09;;;;;;;8.63;4.45;;;15.50;75.00;;;;;;4953565;28;20027;-77
2021/10/27 15:30:35;;;;;;;4.32;2.33;;;15.40;75.20;;;;;;4953862;28;20506;-77
2021/10/27 15:51:46;;;;;;;10.10;1.63;;;14.70;79.70;;;;;;4956797;28;20042;-78
2021/10/27 15:54:14;;;;;;;6.75;3.65;;;14.40;83.70;;;;;;4970184;28;20035;-78
2021/10/27 15:56:41;;;;;;;5.90;4.97;;;14.20;86.00;;;;;;4957484;28;20027;-78
2021/10/27 15:59:11;;;;;;;9.45;8.48;;;13.90;87.70;;;;;;4965889;28;20034;-78
2021/10/27 16:01:37;;;;;;;4.72;2.53;;;13.70;89.20;;;;;;4960604;28;20057;-78
2021/10/27 16:04:05;;;;;;;4.05;1.77;;;13.50;90.30;;;;;;4954990;28;20043;-78
2021/10/27 16:06:39;;;;;;;3.03;2.28;;;13.30;90.90;;;;;;4964869;28;20031;-78
2021/10/27 16:09:10;;;;;;;2.55;2.35;;;13.10;91.50;;;;;;4956908;28;20492;-78
2021/10/27 16:11:39;;;;;;;10.02;3.03;;;12.90;92.10;;;;;;4961231;28;20050;-78
2021/10/27 16:14:06;;;;;;;5.20;2.63;;;12.70;92.80;;;;;;4964750;28;20492;-78
2021/10/27 16:16:33;;;;;;;3.55;2.30;;;12.50;93.40;;;;;;4962321;28;20027;-78
2021/10/27 16:19:00;;;;;;;1.98;1.20;;;12.40;94.30;;;;;;4968295;28;20046;-78
2021/10/27 16:21:28;;;;;;;3.63;1.90;;;12.20;95.50;;;;;;4965951;28;20361;-77
2021/10/27 16:23:57;;;;;;;2.40;1.50;;;12.00;96.70;;;;;;4965176;28;20039;-77
2021/10/27 16:26:24;;;;;;;6.70;2.55;;;11.90;97.90;;;;;;4967052;28;20042;-77
2021/10/27 16:28:51;;;;;;;2.22;1.38;;;11.80;98.90;;;;;;4967814;28;20035;-77
2021/10/27 16:31:19;;;;;;;1.83;1.40;;;11.70;99.90;;;;;;4967211;28;20153;-76
2021/10/27 16:33:46;;;;;;;3.53;1.80;;;11.50;99.90;;;;;;4966155;28;20353;-76
2021/10/27 16:36:13;;;;;;;3.13;2.00;;;11.40;99.90;;;;;;4965320;28;20031;-76
2021/10/27 16:38:41;;;;;;;8.20;7.50;;;11.40;99.90;;;;;;4964569;28;20031;-76
2021/10/27 16:41:08;;;;;;;14.65;10.88;;;11.20;99.90;;;;;;4967673;28;20035;-76
2021/10/27 16:43:35;;;;;;;6.82;5.72;;;11.10;99.90;;;;;;4965938;28;20031;-76
2021/10/27 16:46:01;;;;;;;6.07;4.30;;;10.90;99.90;;;;;;4967266;28;20054;-77
2021/10/27 16:48:28;;;;;;;11.27;10.18;;;10.90;99.90;;;;;;4964113;28;20039;-76
2021/10/27 16:50:56;;;;;;;22.85;20.50;;;10.80;99.90;;;;;;4956423;28;20047;-76
2021/10/27 16:53:24;;;;;;;26.65;22.60;;;10.70;99.90;;;;;;4956301;28;20031;-76
2021/10/27 16:55:51;;;;;;;23.67;19.73;;;10.60;99.90;;;;;;4956433;28;20050;-76
2021/10/27 16:58:17;;;;;;;13.40;12.05;;;10.50;99.90;;;;;;4972017;28;20046;-76
2021/10/27 17:00:44;;;;;;;4.43;4.00;;;10.50;99.90;;;;;;4971069;28;20030;-76
2021/10/27 17:03:10;;;;;;;5.60;4.35;;;10.50;99.90;;;;;;4980088;28;20035;-77
2021/10/27 17:05:40;;;;;;;5.72;4.50;;;10.30;99.90;;;;;;4956345;28;20034;-76
2021/10/27 17:08:16;;;;;;;5.10;4.65;;;10.30;99.90;;;;;;4955307;28;20035;-76
2021/10/27 17:10:47;;;;;;;5.68;5.00;;;10.30;99.90;;;;;;4955803;28;20069;-76
2021/10/27 17:13:14;;;;;;;3.70;3.38;;;10.30;99.90;;;;;;4955617;28;20039;-76
2021/10/27 17:15:41;;;;;;;6.55;4.57;;;10.20;99.90;;;;;;4955503;28;20027;-76
2021/10/27 17:18:07;;;;;;;6.65;3.20;;;10.10;99.90;;;;;;4955573;28;20039;-76
2021/10/27 17:20:35;;;;;;;5.43;2.75;;;10.00;99.90;;;;;;4955911;28;20039;-76
2021/10/27 17:23:01;;;;;;;3.08;2.17;;;9.90;99.90;;;;;;4955758;28;20039;-76
2021/10/27 17:25:29;;;;;;;3.10;1.95;;;9.80;99.90;;;;;;4956069;28;20042;-76
2021/10/27 17:27:56;;;;;;;3.63;2.33;;;9.70;99.90;;;;;;4959933;28;20403;-76
2021/10/27 17:30:24;;;;;;;4.15;2.03;;;9.60;99.90;;;;;;4955946;28;20046;-76
2021/10/27 17:32:51;;;;;;;2.63;2.17;;;9.60;99.90;;;;;;4955563;28;20062;-76
2021/10/27 17:35:19;;;;;;;2.08;1.77;;;9.50;99.90;;;;;;4966382;28;20503;-79